sensor_id;sensor_type;location;lat;lon;timestamp;P1;durP1;ratioP1;P2;durP2;ratioP2
3547;SDS011;1788;49.400;11.092;2022-07-05T00:00:43;1.53;;;1.47;;
3547;SDS011;1788;49.400;11.092;2022-07-05T00:03:10;1.57;;;1.50;;
3547;SDS011;1788;49.400;11.092;2022-07-05T00:05:37;3.27;;;1.63;;
3547;SDS011;1788;49.400;11.092;2022-07-05T00:08:04;2.97;;;1.67;;
3547;SDS011;1788;49.400;11.092;2022-07-05T00:10:32;1.87;;;1.60;;
3547;SDS011;1788;49.400;11.092;2022-07-05T00:12:58;1.63;;;1.53;;
3547;SDS011;1788;49.400;11.092;2022-07-05T00:15:25;1.40;;;1.30;;
3547;SDS011;1788;49.400;11.092;2022-07-05T00:17:52;2.10;;;1.73;;
3547;SDS011;1788;49.400;11.092;2022-07-05T00:20:18;2.13;;;1.53;;
3547;SDS011;1788;49.400;11.092;2022-07-05T00:22:45;1.97;;;1.60;;
3547;SDS011;1788;49.400;11.092;2022-07-05T00:25:11;2.23;;;1.50;;
3547;SDS011;1788;49.400;11.092;2022-07-05T00:27:39;1.80;;;1.70;;
3547;SDS011;1788;49.400;11.092;2022-07-05T00:30:05;1.80;;;1.70;;
3547;SDS011;1788;49.400;11.092;2022-07-05T00:32:32;1.77;;;1.70;;
3547;SDS011;1788;49.400;11.092;2022-07-05T00:34:59;1.90;;;1.80;;
3547;SDS011;1788;49.400;11.092;2022-07-05T00:37:25;1.57;;;1.43;;
3547;SDS011;1788;49.400;11.092;2022-07-05T00:39:53;3.73;;;1.90;;
3547;SDS011;1788;49.400;11.092;2022-07-05T00:42:20;1.90;;;1.60;;
3547;SDS011;1788;49.400;11.092;2022-07-05T00:44:47;1.93;;;1.57;;
3547;SDS011;1788;49.400;11.092;2022-07-05T00:47:13;1.23;;;1.13;;
3547;SDS011;1788;49.400;11.092;2022-07-05T00:49:40;1.70;;;1.60;;
3547;SDS011;1788;49.400;11.092;2022-07-05T00:52:07;2.10;;;1.70;;
3547;SDS011;1788;49.400;11.092;2022-07-05T00:54:34;1.23;;;1.13;;
3547;SDS011;1788;49.400;11.092;2022-07-05T00:57:00;3.43;;;1.63;;
3547;SDS011;1788;49.400;11.092;2022-07-05T00:59:26;1.80;;;1.70;;
3547;SDS011;1788;49.400;11.092;2022-07-05T01:01:53;2.40;;;2.23;;
3547;SDS011;1788;49.400;11.092;2022-07-05T01:04:20;1.90;;;1.80;;
3547;SDS011;1788;49.400;11.092;2022-07-05T01:06:48;2.33;;;2.00;;
3547;SDS011;1788;49.400;11.092;2022-07-05T01:09:14;2.37;;;2.17;;
3547;SDS011;1788;49.400;11.092;2022-07-05T01:11:40;2.63;;;2.47;;
3547;SDS011;1788;49.400;11.092;2022-07-05T01:14:07;2.40;;;2.20;;
3547;SDS011;1788;49.400;11.092;2022-07-05T01:16:34;2.63;;;1.90;;
3547;SDS011;1788;49.400;11.092;2022-07-05T01:19:00;2.13;;;1.97;;
3547;SDS011;1788;49.400;11.092;2022-07-05T01:21:27;2.27;;;2.10;;
3547;SDS011;1788;49.400;11.092;2022-07-05T01:23:54;1.90;;;1.80;;
3547;SDS011;1788;49.400;11.092;2022-07-05T01:26:20;2.20;;;2.00;;
3547;SDS011;1788;49.400;11.092;2022-07-05T01:28:47;2.93;;;2.33;;
3547;SDS011;1788;49.400;11.092;2022-07-05T01:31:14;1.67;;;1.57;;
3547;SDS011;1788;49.400;11.092;2022-07-05T01:33:40;3.33;;;2.00;;
3547;SDS011;1788;49.400;11.092;2022-07-05T01:36:08;2.83;;;1.70;;
3547;SDS011;1788;49.400;11.092;2022-07-05T01:38:34;2.03;;;1.73;;
3547;SDS011;1788;49.400;11.092;2022-07-05T01:41:01;3.80;;;1.83;;
3547;SDS011;1788;49.400;11.092;2022-07-05T01:43:27;2.07;;;1.93;;
3547;SDS011;1788;49.400;11.092;2022-07-05T01:45:54;2.13;;;1.97;;
3547;SDS011;1788;49.400;11.092;2022-07-05T01:48:22;2.50;;;2.30;;
3547;SDS011;1788;49.400;11.092;2022-07-05T01:50:49;2.00;;;1.90;;
3547;SDS011;1788;49.400;11.092;2022-07-05T01:55:42;2.00;;;1.90;;
3547;SDS011;1788;49.400;11.092;2022-07-05T01:58:09;2.20;;;2.00;;
3547;SDS011;1788;49.400;11.092;2022-07-05T02:00:44;4.50;;;2.20;;
3547;SDS011;1788;49.400;11.092;2022-07-05T02:03:03;3.60;;;2.37;;
3547;SDS011;1788;49.400;11.092;2022-07-05T02:05:31;2.67;;;2.00;;
3547;SDS011;1788;49.400;11.092;2022-07-05T02:07:57;2.87;;;1.90;;
3547;SDS011;1788;49.400;11.092;2022-07-05T02:10:25;2.33;;;2.13;;
3547;SDS011;1788;49.400;11.092;2022-07-05T02:12:52;3.73;;;2.23;;
3547;SDS011;1788;49.400;11.092;2022-07-05T02:15:19;2.07;;;1.93;;
3547;SDS011;1788;49.400;11.092;2022-07-05T02:17:45;3.20;;;2.23;;
3547;SDS011;1788;49.400;11.092;2022-07-05T02:20:12;3.83;;;2.27;;
3547;SDS011;1788;49.400;11.092;2022-07-05T02:22:39;2.50;;;2.30;;
3547;SDS011;1788;49.400;11.092;2022-07-05T02:25:05;5.33;;;2.03;;
3547;SDS011;1788;49.400;11.092;2022-07-05T02:27:32;3.30;;;2.40;;
3547;SDS011;1788;49.400;11.092;2022-07-05T02:29:58;2.60;;;2.40;;
3547;SDS011;1788;49.400;11.092;2022-07-05T02:32:25;2.43;;;2.27;;
3547;SDS011;1788;49.400;11.092;2022-07-05T02:34:52;2.60;;;2.40;;
3547;SDS011;1788;49.400;11.092;2022-07-05T02:37:19;2.23;;;2.07;;
3547;SDS011;1788;49.400;11.092;2022-07-05T02:39:46;2.30;;;2.10;;
3547;SDS011;1788;49.400;11.092;2022-07-05T02:42:13;3.07;;;2.33;;
3547;SDS011;1788;49.400;11.092;2022-07-05T02:44:40;2.23;;;2.03;;
3547;SDS011;1788;49.400;11.092;2022-07-05T02:47:08;4.50;;;1.93;;
3547;SDS011;1788;49.400;11.092;2022-07-05T02:49:34;1.73;;;1.63;;
3547;SDS011;1788;49.400;11.092;2022-07-05T02:52:02;2.43;;;2.23;;
3547;SDS011;1788;49.400;11.092;2022-07-05T02:54:28;3.83;;;2.50;;
3547;SDS011;1788;49.400;11.092;2022-07-05T02:56:56;2.53;;;2.37;;
3547;SDS011;1788;49.400;11.092;2022-07-05T02:59:22;2.73;;;2.40;;
3547;SDS011;1788;49.400;11.092;2022-07-05T03:01:49;2.80;;;2.60;;
3547;SDS011;1788;49.400;11.092;2022-07-05T03:04:16;3.27;;;2.47;;
3547;SDS011;1788;49.400;11.092;2022-07-05T03:06:42;1.97;;;1.87;;
3547;SDS011;1788;49.400;11.092;2022-07-05T03:09:09;3.77;;;2.40;;
3547;SDS011;1788;49.400;11.092;2022-07-05T03:11:36;2.40;;;2.23;;
3547;SDS011;1788;49.400;11.092;2022-07-05T03:14:03;3.67;;;2.27;;
3547;SDS011;1788;49.400;11.092;2022-07-05T03:16:30;2.73;;;2.53;;
3547;SDS011;1788;49.400;11.092;2022-07-05T03:18:57;3.07;;;2.90;;
3547;SDS011;1788;49.400;11.092;2022-07-05T03:21:25;2.80;;;2.60;;
3547;SDS011;1788;49.400;11.092;2022-07-05T03:23:52;3.13;;;2.27;;
3547;SDS011;1788;49.400;11.092;2022-07-05T03:26:18;2.43;;;2.23;;
3547;SDS011;1788;49.400;11.092;2022-07-05T03:28:46;2.60;;;2.40;;
3547;SDS011;1788;49.400;11.092;2022-07-05T03:31:12;3.37;;;2.47;;
3547;SDS011;1788;49.400;11.092;2022-07-05T03:33:40;5.67;;;3.00;;
3547;SDS011;1788;49.400;11.092;2022-07-05T03:36:07;2.60;;;2.33;;
3547;SDS011;1788;49.400;11.092;2022-07-05T03:38:33;4.80;;;2.70;;
3547;SDS011;1788;49.400;11.092;2022-07-05T03:41:01;3.47;;;2.53;;
3547;SDS011;1788;49.400;11.092;2022-07-05T03:43:28;3.53;;;3.20;;
3547;SDS011;1788;49.400;11.092;2022-07-05T03:45:54;2.73;;;2.53;;
3547;SDS011;1788;49.400;11.092;2022-07-05T03:48:22;2.83;;;2.63;;
3547;SDS011;1788;49.400;11.092;2022-07-05T03:50:48;3.20;;;3.03;;
3547;SDS011;1788;49.400;11.092;2022-07-05T03:53:15;3.03;;;2.80;;
3547;SDS011;1788;49.400;11.092;2022-07-05T03:55:41;3.33;;;2.80;;
3547;SDS011;1788;49.400;11.092;2022-07-05T03:58:08;2.87;;;2.67;;
3547;SDS011;1788;49.400;11.092;2022-07-05T04:00:35;4.23;;;3.00;;
3547;SDS011;1788;49.400;11.092;2022-07-05T04:03:01;2.63;;;2.40;;
3547;SDS011;1788;49.400;11.092;2022-07-05T04:05:28;2.67;;;2.47;;
3547;SDS011;1788;49.400;11.092;2022-07-05T04:07:55;3.33;;;3.00;;
3547;SDS011;1788;49.400;11.092;2022-07-05T04:10:22;3.23;;;3.03;;
3547;SDS011;1788;49.400;11.092;2022-07-05T04:12:49;3.30;;;3.10;;
3547;SDS011;1788;49.400;11.092;2022-07-05T04:15:16;4.23;;;3.23;;
3547;SDS011;1788;49.400;11.092;2022-07-05T04:20:09;3.03;;;2.77;;
3547;SDS011;1788;49.400;11.092;2022-07-05T04:22:37;3.90;;;2.90;;
3547;SDS011;1788;49.400;11.092;2022-07-05T04:25:04;4.77;;;3.30;;
3547;SDS011;1788;49.400;11.092;2022-07-05T04:27:30;3.63;;;2.97;;
3547;SDS011;1788;49.400;11.092;2022-07-05T04:29:57;4.63;;;3.30;;
3547;SDS011;1788;49.400;11.092;2022-07-05T04:32:26;3.83;;;3.33;;
3547;SDS011;1788;49.400;11.092;2022-07-05T04:34:52;2.97;;;2.80;;
3547;SDS011;1788;49.400;11.092;2022-07-05T04:37:19;5.20;;;3.00;;
3547;SDS011;1788;49.400;11.092;2022-07-05T04:39:45;3.47;;;3.27;;
3547;SDS011;1788;49.400;11.092;2022-07-05T04:42:12;3.90;;;3.10;;
3547;SDS011;1788;49.400;11.092;2022-07-05T04:44:39;3.27;;;3.07;;
3547;SDS011;1788;49.400;11.092;2022-07-05T04:47:05;4.30;;;3.27;;
3547;SDS011;1788;49.400;11.092;2022-07-05T04:49:32;5.30;;;3.10;;
3547;SDS011;1788;49.400;11.092;2022-07-05T04:51:59;3.50;;;3.20;;
3547;SDS011;1788;49.400;11.092;2022-07-05T04:54:25;4.80;;;2.97;;
3547;SDS011;1788;49.400;11.092;2022-07-05T04:56:52;3.60;;;3.27;;
3547;SDS011;1788;49.400;11.092;2022-07-05T04:59:18;3.27;;;3.13;;
3547;SDS011;1788;49.400;11.092;2022-07-05T05:01:45;3.70;;;2.77;;
3547;SDS011;1788;49.400;11.092;2022-07-05T05:09:05;4.27;;;4.00;;
3547;SDS011;1788;49.400;11.092;2022-07-05T05:11:32;3.10;;;2.90;;
3547;SDS011;1788;49.400;11.092;2022-07-05T05:13:59;6.37;;;3.93;;
3547;SDS011;1788;49.400;11.092;2022-07-05T05:16:26;4.20;;;3.37;;
3547;SDS011;1788;49.400;11.092;2022-07-05T05:18:52;4.43;;;3.10;;
3547;SDS011;1788;49.400;11.092;2022-07-05T05:21:19;3.63;;;3.27;;
3547;SDS011;1788;49.400;11.092;2022-07-05T05:23:46;6.70;;;3.30;;
3547;SDS011;1788;49.400;11.092;2022-07-05T05:26:12;3.97;;;3.23;;
3547;SDS011;1788;49.400;11.092;2022-07-05T05:28:39;5.97;;;3.00;;
3547;SDS011;1788;49.400;11.092;2022-07-05T05:31:06;4.17;;;3.40;;
3547;SDS011;1788;49.400;11.092;2022-07-05T05:33:32;3.33;;;3.13;;
3547;SDS011;1788;49.400;11.092;2022-07-05T05:35:59;2.90;;;2.70;;
3547;SDS011;1788;49.400;11.092;2022-07-05T05:38:25;3.27;;;2.87;;
3547;SDS011;1788;49.400;11.092;2022-07-05T05:40:53;3.47;;;3.07;;
3547;SDS011;1788;49.400;11.092;2022-07-05T05:43:19;4.00;;;3.07;;
3547;SDS011;1788;49.400;11.092;2022-07-05T05:45:46;2.97;;;2.83;;
3547;SDS011;1788;49.400;11.092;2022-07-05T05:50:58;2.70;;;2.50;;
3547;SDS011;1788;49.400;11.092;2022-07-05T05:53:25;2.90;;;2.40;;
3547;SDS011;1788;49.400;11.092;2022-07-05T05:55:52;2.93;;;2.37;;
3547;SDS011;1788;49.400;11.092;2022-07-05T05:58:20;3.10;;;2.90;;
3547;SDS011;1788;49.400;11.092;2022-07-05T06:00:46;3.07;;;2.80;;
3547;SDS011;1788;49.400;11.092;2022-07-05T06:03:12;3.17;;;2.97;;
3547;SDS011;1788;49.400;11.092;2022-07-05T06:05:39;3.27;;;3.07;;
3547;SDS011;1788;49.400;11.092;2022-07-05T06:08:06;3.03;;;2.80;;
3547;SDS011;1788;49.400;11.092;2022-07-05T06:10:33;2.60;;;2.40;;
3547;SDS011;1788;49.400;11.092;2022-07-05T06:15:28;3.07;;;2.73;;
3547;SDS011;1788;49.400;11.092;2022-07-05T06:17:55;2.77;;;2.57;;
3547;SDS011;1788;49.400;11.092;2022-07-05T06:20:23;4.27;;;2.97;;
3547;SDS011;1788;49.400;11.092;2022-07-05T06:22:49;5.17;;;2.90;;
3547;SDS011;1788;49.400;11.092;2022-07-05T06:25:16;3.13;;;2.93;;
3547;SDS011;1788;49.400;11.092;2022-07-05T06:27:44;2.77;;;2.57;;
3547;SDS011;1788;49.400;11.092;2022-07-05T06:30:10;4.27;;;3.10;;
3547;SDS011;1788;49.400;11.092;2022-07-05T06:32:37;2.60;;;2.40;;
3547;SDS011;1788;49.400;11.092;2022-07-05T06:35:04;2.60;;;2.43;;
3547;SDS011;1788;49.400;11.092;2022-07-05T06:39:58;3.67;;;2.67;;
3547;SDS011;1788;49.400;11.092;2022-07-05T06:42:24;2.50;;;2.30;;
3547;SDS011;1788;49.400;11.092;2022-07-05T06:44:52;2.97;;;2.77;;
3547;SDS011;1788;49.400;11.092;2022-07-05T06:47:19;2.53;;;2.33;;
3547;SDS011;1788;49.400;11.092;2022-07-05T06:49:46;2.77;;;2.20;;
3547;SDS011;1788;49.400;11.092;2022-07-05T06:52:13;2.80;;;2.63;;
3547;SDS011;1788;49.400;11.092;2022-07-05T06:54:39;3.10;;;2.90;;
3547;SDS011;1788;49.400;11.092;2022-07-05T06:57:06;2.90;;;2.70;;
3547;SDS011;1788;49.400;11.092;2022-07-05T06:59:33;2.73;;;2.53;;
3547;SDS011;1788;49.400;11.092;2022-07-05T07:01:59;2.97;;;2.73;;
3547;SDS011;1788;49.400;11.092;2022-07-05T07:06:53;2.97;;;2.77;;
3547;SDS011;1788;49.400;11.092;2022-07-05T07:09:20;2.73;;;2.53;;
3547;SDS011;1788;49.400;11.092;2022-07-05T07:11:47;3.13;;;2.93;;
3547;SDS011;1788;49.400;11.092;2022-07-05T07:14:13;4.10;;;2.80;;
3547;SDS011;1788;49.400;11.092;2022-07-05T07:16:40;3.43;;;2.60;;
3547;SDS011;1788;49.400;11.092;2022-07-05T07:19:06;3.30;;;3.10;;
3547;SDS011;1788;49.400;11.092;2022-07-05T07:21:33;3.17;;;2.80;;
3547;SDS011;1788;49.400;11.092;2022-07-05T07:24:00;3.47;;;2.70;;
3547;SDS011;1788;49.400;11.092;2022-07-05T07:26:26;4.07;;;2.90;;
3547;SDS011;1788;49.400;11.092;2022-07-05T07:28:53;5.03;;;3.20;;
3547;SDS011;1788;49.400;11.092;2022-07-05T07:31:19;4.07;;;2.73;;
3547;SDS011;1788;49.400;11.092;2022-07-05T07:33:46;3.17;;;2.40;;
3547;SDS011;1788;49.400;11.092;2022-07-05T07:36:14;3.60;;;3.17;;
3547;SDS011;1788;49.400;11.092;2022-07-05T07:38:41;4.40;;;2.50;;
3547;SDS011;1788;49.400;11.092;2022-07-05T07:43:34;2.57;;;2.37;;
3547;SDS011;1788;49.400;11.092;2022-07-05T07:46:01;2.43;;;2.23;;
3547;SDS011;1788;49.400;11.092;2022-07-05T07:48:28;3.53;;;2.80;;
3547;SDS011;1788;49.400;11.092;2022-07-05T07:50:55;4.47;;;2.73;;
3547;SDS011;1788;49.400;11.092;2022-07-05T07:53:22;3.63;;;2.77;;
3547;SDS011;1788;49.400;11.092;2022-07-05T07:55:48;2.43;;;2.23;;
3547;SDS011;1788;49.400;11.092;2022-07-05T07:58:14;2.30;;;2.10;;
3547;SDS011;1788;49.400;11.092;2022-07-05T08:00:42;3.93;;;2.30;;
3547;SDS011;1788;49.400;11.092;2022-07-05T08:03:09;3.30;;;2.47;;
3547;SDS011;1788;49.400;11.092;2022-07-05T08:05:35;3.90;;;2.90;;
3547;SDS011;1788;49.400;11.092;2022-07-05T08:08:02;3.03;;;2.67;;
3547;SDS011;1788;49.400;11.092;2022-07-05T08:10:28;2.77;;;2.20;;
3547;SDS011;1788;49.400;11.092;2022-07-05T08:12:55;3.40;;;2.43;;
3547;SDS011;1788;49.400;11.092;2022-07-05T08:15:22;2.63;;;2.47;;
3547;SDS011;1788;49.400;11.092;2022-07-05T08:17:48;2.90;;;2.70;;
3547;SDS011;1788;49.400;11.092;2022-07-05T08:20:15;2.07;;;1.93;;
3547;SDS011;1788;49.400;11.092;2022-07-05T08:22:41;2.23;;;2.00;;
3547;SDS011;1788;49.400;11.092;2022-07-05T08:25:09;2.23;;;2.03;;
3547;SDS011;1788;49.400;11.092;2022-07-05T08:27:35;1.87;;;1.83;;
3547;SDS011;1788;49.400;11.092;2022-07-05T08:30:02;2.83;;;1.83;;
3547;SDS011;1788;49.400;11.092;2022-07-05T08:32:29;2.33;;;1.67;;
3547;SDS011;1788;49.400;11.092;2022-07-05T08:34:55;1.60;;;1.57;;
3547;SDS011;1788;49.400;11.092;2022-07-05T08:37:23;2.20;;;2.00;;
3547;SDS011;1788;49.400;11.092;2022-07-05T08:39:49;1.60;;;1.50;;
3547;SDS011;1788;49.400;11.092;2022-07-05T08:42:17;2.13;;;1.60;;
3547;SDS011;1788;49.400;11.092;2022-07-05T08:44:43;1.70;;;1.60;;
3547;SDS011;1788;49.400;11.092;2022-07-05T08:47:11;1.43;;;1.13;;
3547;SDS011;1788;49.400;11.092;2022-07-05T08:49:38;1.70;;;1.60;;
3547;SDS011;1788;49.400;11.092;2022-07-05T08:52:04;1.60;;;1.50;;
3547;SDS011;1788;49.400;11.092;2022-07-05T08:54:30;2.50;;;1.97;;
3547;SDS011;1788;49.400;11.092;2022-07-05T08:56:57;1.93;;;1.83;;
3547;SDS011;1788;49.400;11.092;2022-07-05T08:59:24;2.27;;;2.10;;
3547;SDS011;1788;49.400;11.092;2022-07-05T09:04:17;1.70;;;1.50;;
3547;SDS011;1788;49.400;11.092;2022-07-05T09:06:45;1.63;;;1.53;;
3547;SDS011;1788;49.400;11.092;2022-07-05T09:09:11;2.53;;;1.93;;
3547;SDS011;1788;49.400;11.092;2022-07-05T09:11:39;1.70;;;1.60;;
3547;SDS011;1788;49.400;11.092;2022-07-05T09:14:06;2.10;;;1.57;;
3547;SDS011;1788;49.400;11.092;2022-07-05T09:16:32;1.43;;;1.33;;
3547;SDS011;1788;49.400;11.092;2022-07-05T09:21:27;1.70;;;1.60;;
3547;SDS011;1788;49.400;11.092;2022-07-05T09:26:26;2.30;;;1.77;;
3547;SDS011;1788;49.400;11.092;2022-07-05T09:36:10;1.87;;;1.67;;
3547;SDS011;1788;49.400;11.092;2022-07-05T09:38:37;1.90;;;1.80;;
3547;SDS011;1788;49.400;11.092;2022-07-05T09:41:03;2.23;;;1.80;;
3547;SDS011;1788;49.400;11.092;2022-07-05T09:43:31;2.47;;;2.27;;
3547;SDS011;1788;49.400;11.092;2022-07-05T09:48:26;1.80;;;1.70;;
3547;SDS011;1788;49.400;11.092;2022-07-05T09:50:52;6.10;;;1.93;;
3547;SDS011;1788;49.400;11.092;2022-07-05T09:53:19;1.53;;;1.43;;
3547;SDS011;1788;49.400;11.092;2022-07-05T09:58:13;2.50;;;1.80;;
3547;SDS011;1788;49.400;11.092;2022-07-05T10:00:40;2.27;;;2.07;;
3547;SDS011;1788;49.400;11.092;2022-07-05T10:03:07;2.53;;;1.80;;
3547;SDS011;1788;49.400;11.092;2022-07-05T10:05:34;1.90;;;1.80;;
3547;SDS011;1788;49.400;11.092;2022-07-05T10:08:02;1.93;;;1.90;;
3547;SDS011;1788;49.400;11.092;2022-07-05T10:10:29;1.70;;;1.60;;
3547;SDS011;1788;49.400;11.092;2022-07-05T10:12:56;1.80;;;1.70;;
3547;SDS011;1788;49.400;11.092;2022-07-05T10:15:23;2.30;;;1.70;;
3547;SDS011;1788;49.400;11.092;2022-07-05T10:22:42;2.40;;;2.20;;
3547;SDS011;1788;49.400;11.092;2022-07-05T10:25:09;2.03;;;1.70;;
3547;SDS011;1788;49.400;11.092;2022-07-05T10:27:36;1.80;;;1.70;;
3547;SDS011;1788;49.400;11.092;2022-07-05T10:30:03;1.67;;;1.57;;
3547;SDS011;1788;49.400;11.092;2022-07-05T10:32:30;1.80;;;1.70;;
3547;SDS011;1788;49.400;11.092;2022-07-05T10:34:58;2.27;;;1.90;;
3547;SDS011;1788;49.400;11.092;2022-07-05T10:37:25;1.67;;;1.57;;
3547;SDS011;1788;49.400;11.092;2022-07-05T10:39:50;1.60;;;1.50;;
3547;SDS011;1788;49.400;11.092;2022-07-05T10:42:17;2.13;;;1.80;;
3547;SDS011;1788;49.400;11.092;2022-07-05T10:44:44;1.37;;;1.27;;
3547;SDS011;1788;49.400;11.092;2022-07-05T10:47:11;3.03;;;1.93;;
3547;SDS011;1788;49.400;11.092;2022-07-05T10:49:38;3.07;;;1.93;;
3547;SDS011;1788;49.400;11.092;2022-07-05T10:52:04;1.87;;;1.77;;
3547;SDS011;1788;49.400;11.092;2022-07-05T10:54:31;1.87;;;1.77;;
3547;SDS011;1788;49.400;11.092;2022-07-05T10:59:25;1.80;;;1.70;;
3547;SDS011;1788;49.400;11.092;2022-07-05T11:01:52;1.50;;;1.40;;
3547;SDS011;1788;49.400;11.092;2022-07-05T11:04:19;1.97;;;1.40;;
3547;SDS011;1788;49.400;11.092;2022-07-05T11:06:45;2.37;;;1.87;;
3547;SDS011;1788;49.400;11.092;2022-07-05T11:09:13;1.90;;;1.80;;
3547;SDS011;1788;49.400;11.092;2022-07-05T11:11:39;1.63;;;1.53;;
3547;SDS011;1788;49.400;11.092;2022-07-05T11:16:33;1.87;;;1.83;;
3547;SDS011;1788;49.400;11.092;2022-07-05T11:21:26;1.50;;;1.40;;
3547;SDS011;1788;49.400;11.092;2022-07-05T11:23:52;2.50;;;1.70;;
3547;SDS011;1788;49.400;11.092;2022-07-05T11:26:19;1.73;;;1.63;;
3547;SDS011;1788;49.400;11.092;2022-07-05T11:28:46;1.77;;;1.53;;
3547;SDS011;1788;49.400;11.092;2022-07-05T11:33:41;1.63;;;1.53;;
3547;SDS011;1788;49.400;11.092;2022-07-05T11:38:34;1.73;;;1.63;;
3547;SDS011;1788;49.400;11.092;2022-07-05T11:41:10;1.80;;;1.50;;
3547;SDS011;1788;49.400;11.092;2022-07-05T11:43:28;2.63;;;1.93;;
3547;SDS011;1788;49.400;11.092;2022-07-05T11:48:21;1.87;;;1.77;;
3547;SDS011;1788;49.400;11.092;2022-07-05T11:50:48;1.67;;;1.57;;
3547;SDS011;1788;49.400;11.092;2022-07-05T11:53:24;1.80;;;1.70;;
3547;SDS011;1788;49.400;11.092;2022-07-05T11:55:41;1.87;;;1.77;;
3547;SDS011;1788;49.400;11.092;2022-07-05T11:58:08;1.57;;;1.47;;
3547;SDS011;1788;49.400;11.092;2022-07-05T12:00:36;1.83;;;1.67;;
3547;SDS011;1788;49.400;11.092;2022-07-05T12:03:10;2.27;;;2.13;;
3547;SDS011;1788;49.400;11.092;2022-07-05T12:05:29;2.47;;;1.70;;
3547;SDS011;1788;49.400;11.092;2022-07-05T12:07:55;3.50;;;2.00;;
3547;SDS011;1788;49.400;11.092;2022-07-05T12:10:22;2.13;;;1.97;;
3547;SDS011;1788;49.400;11.092;2022-07-05T12:12:49;2.20;;;1.70;;
3547;SDS011;1788;49.400;11.092;2022-07-05T12:15:16;1.80;;;1.70;;
3547;SDS011;1788;49.400;11.092;2022-07-05T12:17:44;1.97;;;1.70;;
3547;SDS011;1788;49.400;11.092;2022-07-05T12:20:11;1.77;;;1.67;;
3547;SDS011;1788;49.400;11.092;2022-07-05T12:22:39;2.13;;;1.80;;
3547;SDS011;1788;49.400;11.092;2022-07-05T12:25:05;1.80;;;1.70;;
3547;SDS011;1788;49.400;11.092;2022-07-05T12:27:33;2.07;;;1.93;;
3547;SDS011;1788;49.400;11.092;2022-07-05T12:29:58;1.63;;;1.53;;
3547;SDS011;1788;49.400;11.092;2022-07-05T12:32:25;1.97;;;1.90;;
3547;SDS011;1788;49.400;11.092;2022-07-05T12:34:51;1.90;;;1.80;;
3547;SDS011;1788;49.400;11.092;2022-07-05T12:39:45;2.37;;;1.93;;
3547;SDS011;1788;49.400;11.092;2022-07-05T12:42:11;1.90;;;1.80;;
3547;SDS011;1788;49.400;11.092;2022-07-05T12:44:38;1.73;;;1.63;;
3547;SDS011;1788;49.400;11.092;2022-07-05T12:47:05;1.90;;;1.80;;
3547;SDS011;1788;49.400;11.092;2022-07-05T12:49:31;1.83;;;1.73;;
3547;SDS011;1788;49.400;11.092;2022-07-05T12:52:02;2.20;;;2.00;;
3547;SDS011;1788;49.400;11.092;2022-07-05T12:54:24;2.73;;;1.80;;
3547;SDS011;1788;49.400;11.092;2022-07-05T12:56:52;2.07;;;1.70;;
3547;SDS011;1788;49.400;11.092;2022-07-05T12:59:19;1.33;;;1.23;;
3547;SDS011;1788;49.400;11.092;2022-07-05T13:01:45;2.00;;;1.60;;
3547;SDS011;1788;49.400;11.092;2022-07-05T13:04:12;1.80;;;1.70;;
3547;SDS011;1788;49.400;11.092;2022-07-05T13:09:05;1.63;;;1.43;;
3547;SDS011;1788;49.400;11.092;2022-07-05T13:11:32;2.47;;;1.90;;
3547;SDS011;1788;49.400;11.092;2022-07-05T13:13:58;1.83;;;1.60;;
3547;SDS011;1788;49.400;11.092;2022-07-05T13:16:25;1.97;;;1.87;;
3547;SDS011;1788;49.400;11.092;2022-07-05T13:18:51;2.90;;;1.80;;
3547;SDS011;1788;49.400;11.092;2022-07-05T13:21:18;1.50;;;1.40;;
3547;SDS011;1788;49.400;11.092;2022-07-05T13:23:45;1.83;;;1.63;;
3547;SDS011;1788;49.400;11.092;2022-07-05T13:26:11;1.83;;;1.73;;
3547;SDS011;1788;49.400;11.092;2022-07-05T13:28:38;1.70;;;1.60;;
3547;SDS011;1788;49.400;11.092;2022-07-05T13:31:04;2.23;;;1.87;;
3547;SDS011;1788;49.400;11.092;2022-07-05T13:33:31;5.83;;;2.27;;
3547;SDS011;1788;49.400;11.092;2022-07-05T13:35:58;3.70;;;2.10;;
3547;SDS011;1788;49.400;11.092;2022-07-05T13:38:25;1.83;;;1.73;;
3547;SDS011;1788;49.400;11.092;2022-07-05T13:40:52;1.87;;;1.77;;
3547;SDS011;1788;49.400;11.092;2022-07-05T13:43:19;1.77;;;1.70;;
3547;SDS011;1788;49.400;11.092;2022-07-05T13:45:46;2.50;;;1.87;;
3547;SDS011;1788;49.400;11.092;2022-07-05T13:48:12;1.67;;;1.60;;
3547;SDS011;1788;49.400;11.092;2022-07-05T13:50:39;2.63;;;2.10;;
3547;SDS011;1788;49.400;11.092;2022-07-05T13:53:05;2.00;;;1.90;;
3547;SDS011;1788;49.400;11.092;2022-07-05T13:55:32;1.70;;;1.60;;
3547;SDS011;1788;49.400;11.092;2022-07-05T13:57:59;1.77;;;1.67;;
3547;SDS011;1788;49.400;11.092;2022-07-05T14:00:25;1.97;;;1.87;;
3547;SDS011;1788;49.400;11.092;2022-07-05T14:02:54;2.23;;;2.03;;
3547;SDS011;1788;49.400;11.092;2022-07-05T14:05:21;2.47;;;1.97;;
3547;SDS011;1788;49.400;11.092;2022-07-05T14:10:15;2.90;;;1.90;;
3547;SDS011;1788;49.400;11.092;2022-07-05T14:12:42;1.63;;;1.53;;
3547;SDS011;1788;49.400;11.092;2022-07-05T14:15:09;1.93;;;1.83;;
3547;SDS011;1788;49.400;11.092;2022-07-05T14:17:36;1.90;;;1.80;;
3547;SDS011;1788;49.400;11.092;2022-07-05T14:20:03;1.80;;;1.70;;
3547;SDS011;1788;49.400;11.092;2022-07-05T14:22:29;2.43;;;1.93;;
3547;SDS011;1788;49.400;11.092;2022-07-05T14:24:55;2.77;;;1.50;;
3547;SDS011;1788;49.400;11.092;2022-07-05T14:27:22;1.70;;;1.60;;
3547;SDS011;1788;49.400;11.092;2022-07-05T14:29:49;4.50;;;1.73;;
3547;SDS011;1788;49.400;11.092;2022-07-05T14:32:16;1.70;;;1.60;;
3547;SDS011;1788;49.400;11.092;2022-07-05T14:34:43;1.67;;;1.57;;
3547;SDS011;1788;49.400;11.092;2022-07-05T14:37:10;2.40;;;1.50;;
3547;SDS011;1788;49.400;11.092;2022-07-05T14:39:37;2.47;;;1.60;;
3547;SDS011;1788;49.400;11.092;2022-07-05T14:42:04;1.87;;;1.77;;
3547;SDS011;1788;49.400;11.092;2022-07-05T14:44:31;1.87;;;1.77;;
3547;SDS011;1788;49.400;11.092;2022-07-05T14:46:57;1.80;;;1.70;;
3547;SDS011;1788;49.400;11.092;2022-07-05T14:49:24;1.93;;;1.77;;
3547;SDS011;1788;49.400;11.092;2022-07-05T14:51:51;2.30;;;1.57;;
3547;SDS011;1788;49.400;11.092;2022-07-05T14:54:18;2.80;;;1.83;;
3547;SDS011;1788;49.400;11.092;2022-07-05T14:56:44;2.00;;;1.90;;
3547;SDS011;1788;49.400;11.092;2022-07-05T14:59:11;1.80;;;1.70;;
3547;SDS011;1788;49.400;11.092;2022-07-05T15:01:38;2.47;;;1.73;;
3547;SDS011;1788;49.400;11.092;2022-07-05T15:04:06;2.13;;;1.93;;
3547;SDS011;1788;49.400;11.092;2022-07-05T15:06:33;1.60;;;1.50;;
3547;SDS011;1788;49.400;11.092;2022-07-05T15:09:00;2.20;;;2.03;;
3547;SDS011;1788;49.400;11.092;2022-07-05T15:11:27;2.23;;;2.03;;
3547;SDS011;1788;49.400;11.092;2022-07-05T15:13:54;1.93;;;1.83;;
3547;SDS011;1788;49.400;11.092;2022-07-05T15:16:21;2.20;;;2.00;;
3547;SDS011;1788;49.400;11.092;2022-07-05T15:18:47;2.83;;;2.43;;
3547;SDS011;1788;49.400;11.092;2022-07-05T15:21:14;2.00;;;1.90;;
3547;SDS011;1788;49.400;11.092;2022-07-05T15:23:40;2.30;;;2.00;;
3547;SDS011;1788;49.400;11.092;2022-07-05T15:26:08;6.13;;;3.83;;
3547;SDS011;1788;49.400;11.092;2022-07-05T15:28:36;1.90;;;1.80;;
3547;SDS011;1788;49.400;11.092;2022-07-05T15:31:03;1.93;;;1.70;;
3547;SDS011;1788;49.400;11.092;2022-07-05T15:33:30;2.13;;;1.97;;
3547;SDS011;1788;49.400;11.092;2022-07-05T15:35:57;3.53;;;2.73;;
3547;SDS011;1788;49.400;11.092;2022-07-05T15:38:24;6.83;;;2.57;;
3547;SDS011;1788;49.400;11.092;2022-07-05T15:40:52;6.17;;;2.70;;
3547;SDS011;1788;49.400;11.092;2022-07-05T15:43:18;3.10;;;2.10;;
3547;SDS011;1788;49.400;11.092;2022-07-05T15:45:45;1.83;;;1.73;;
3547;SDS011;1788;49.400;11.092;2022-07-05T15:48:12;2.00;;;1.90;;
3547;SDS011;1788;49.400;11.092;2022-07-05T15:50:39;1.93;;;1.60;;
3547;SDS011;1788;49.400;11.092;2022-07-05T15:53:06;1.77;;;1.67;;
3547;SDS011;1788;49.400;11.092;2022-07-05T15:55:32;2.17;;;2.00;;
3547;SDS011;1788;49.400;11.092;2022-07-05T15:57:59;2.37;;;2.13;;
3547;SDS011;1788;49.400;11.092;2022-07-05T16:00:28;2.00;;;1.90;;
3547;SDS011;1788;49.400;11.092;2022-07-05T16:02:55;2.33;;;2.13;;
3547;SDS011;1788;49.400;11.092;2022-07-05T16:05:21;2.80;;;2.30;;